Previous Day
Next Day
Current Day
SHEF ID: FVSO2 FAIRVIEW
STATION TYPE: Mesonet
PRECIP AIR-TEMP WIND-DIRWIND-SPEED REL-HUMID SOLAR-RAD
in F deg mph % W/m2
Raw-Meson Raw-Meson Raw-Meson Raw-Meson Raw-Meson Raw-Meson
(US/Central)
06/04 00:00 0.00 66.78 162.75 3.80 87.25 0.00
06/04 01:00 0.00 67.87 188.00 7.60 83.25 0.00
06/04 02:00 0.00 68.50 197.25 8.05 81.75 0.00
06/04 03:00 0.00 67.64 150.25 3.30 83.75 0.00
06/04 04:00 0.00 69.48 205.50 7.99 79.75 0.00
06/04 05:00 0.00 69.35 219.00 7.77 79.75 0.00
06/04 06:00 0.00 68.94 223.00 8.22 81.75 0.00
06/04 07:00 0.00 68.45 227.75 8.05 83.25 33.25
06/04 08:00 0.00 71.24 222.00 8.50 77.25 193.75
06/04 09:00 0.00 75.06 224.50 8.16 71.00 396.75
06/04 10:00 0.00 78.53 218.00 9.28 63.50 594.50
06/04 11:00 0.00 80.87 224.25 10.57 57.75 763.75
06/04 12:00 0.00 83.71 203.25 9.96 51.75 910.00
06/04 13:00 0.00 85.73 198.25 9.79 45.25 1078.75
06/04 14:00 0.00 84.83 198.50 8.44 46.75 864.00
06/04 15:00 0.00 86.31 198.00 9.89 42.50 849.00
06/04 16:00 0.00 87.22 193.75 9.12 40.75 861.75
06/04 17:00 0.00 87.58 186.00 10.40 40.25 619.75
06/04 18:00 0.00 86.54 178.75 9.67 40.25 392.00
06/04 19:00 0.00 86.63 171.25 9.45 39.50 380.25
06/04 20:00 0.00 83.80 160.25 11.57 43.50 162.75
06/04 21:00 0.00 79.25 161.75 9.39 52.75 27.50
06/04 22:00 0.00 74.61 170.25 6.93 60.75 0.00
06/04 23:00 ---- 73.49 174.25 9.00 63.25 0.00